• Join FlightAware (Why Join?)
  • Login
  • US Flag 
01:43PM EDT


 

Airport Tracker/Info


-or-


 

Live Flight TrackerFlight Track Log ✈ TYR394 ✈ 08-Apr-2013 ✈ LEBL / BCN - LOWW / VIE

Flight Track Log - Related Links

Times and Time Zones

All times are in EDT time to prevent confusion due to time zone crossing. See the TYR394 flight status page for this flight to view local times or setup timezone preferences in your user account.

Time Position Orientation Groundspeed Altitude Reporting Facility
EDT Latitude Longitude Course Direction KTS MPH feet Rate Location/Type
03:15PM 41.9545 3.2011 52° Northeast  Level Estimated
03:16PM 42.0268 3.3272 52° Northeast  Level Estimated
03:17PM 42.0991 3.4537 52° Northeast  Level Estimated
03:18PM 42.1712 3.5804 52° Northeast  Level Estimated
03:19PM 42.2431 3.7074 53° Northeast  Level Estimated
03:20PM 42.3149 3.8347 53° Northeast  Level Estimated
03:21PM 42.3866 3.9623 53° Northeast  Level Estimated
03:22PM 42.4581 4.0902 53° Northeast  Level Estimated
03:23PM 42.5295 4.2184 53° Northeast  Level Estimated
03:24PM 42.6007 4.3469 53° Northeast  Level Estimated
03:25PM 42.6718 4.4756 53° Northeast  Level Estimated
03:26PM 42.7428 4.6047 53° Northeast  Level Estimated
03:27PM 42.8136 4.7341 53° Northeast  Level Estimated
03:28PM 42.8842 4.8637 53° Northeast  Level Estimated
03:29PM 42.9547 4.9937 53° Northeast  Level Estimated
03:30PM 43.0251 5.1239 54° Northeast  Level Estimated
03:31PM 43.0953 5.2545 54° Northeast  Level Estimated
03:32PM 43.1654 5.3853 54° Northeast  Level Estimated
03:33PM 43.2353 5.5165 54° Northeast  Level Estimated
03:34PM 43.3051 5.6479 54° Northeast  Level Estimated
03:35PM 43.3747 5.7797 54° Northeast  Level Estimated
03:36PM 43.4442 5.9117 54° Northeast  Level Estimated
03:37PM 43.5135 6.0441 54° Northeast  Level Estimated
03:38PM 43.5826 6.1767 54° Northeast  Level Estimated
03:39PM 43.6516 6.3097 54° Northeast  Level Estimated
03:40PM 43.7205 6.4430 54° Northeast  Level Estimated
03:41PM 43.7892 6.5766 55° Northeast  Level Estimated
03:42PM 43.8577 6.7105 55° Northeast  Level Estimated
03:43PM 43.9261 6.8446 55° Northeast  Level Estimated
03:44PM 43.9944 6.9791 55° Northeast  Level Estimated
03:45PM 44.0624 7.1139 55° Northeast  Level Estimated
03:46PM 44.1303 7.2491 55° Northeast  Level Estimated
03:47PM 44.1981 7.3845 55° Northeast  Level Estimated
03:48PM 44.2657 7.5202 55° Northeast  Level Estimated
03:49PM 44.3331 7.6563 55° Northeast  Level Estimated
03:50PM 44.4004 7.7927 55° Northeast  Level Estimated
03:51PM 44.4675 7.9293 55° Northeast  Level Estimated
03:52PM 44.5344 8.0663 56° Northeast  Level Estimated
03:53PM 44.6012 8.2037 56° Northeast  Level Estimated
03:54PM 44.6678 8.3413 56° Northeast  Level Estimated
03:55PM 44.7342 8.4792 56° Northeast  Level Estimated
03:56PM 44.8005 8.6175 56° Northeast  Level Estimated
03:57PM 44.8666 8.7561 56° Northeast  Level Estimated
03:58PM 44.9326 8.8950 56° Northeast  Level Estimated
03:59PM 44.9984 9.0342 56° Northeast  Level Estimated
04:00PM 45.0640 9.1737 56° Northeast  Level Estimated
04:01PM 45.1294 9.3136 56° Northeast  Level Estimated
04:02PM 45.1947 9.4537 57° Northeast  Level Estimated
04:03PM 45.2598 9.5942 57° Northeast  Level Estimated
04:04PM 45.3247 9.7351 57° Northeast  Level Estimated
04:05PM 45.3894 9.8762 57° Northeast  Level Estimated
04:06PM 45.4540 10.0177 57° Northeast  Level Estimated
04:07PM 45.5184 10.1594 57° Northeast  Level Estimated
04:08PM 45.5826 10.3016 57° Northeast  Level Estimated
04:09PM 45.6467 10.4440 57° Northeast  Level Estimated
04:10PM 45.7105 10.5868 57° Northeast  Level Estimated
04:11PM 45.7742 10.7298 57° Northeast  Level Estimated
04:12PM 45.8377 10.8733 58° Northeast  Level Estimated
04:13PM 45.9011 11.0170 58° Northeast  Level Estimated
04:14PM 45.9642 11.1611 58° Northeast  Level Estimated
04:15PM 46.0272 11.3055 58° Northeast  Level Estimated
04:16PM 46.0900 11.4502 58° Northeast  Level Estimated
04:17PM 46.1526 11.5953 58° Northeast  Level Estimated
04:18PM 46.2150 11.7407 58° Northeast  Level Estimated
04:19PM 46.2772 11.8864 58° Northeast  Level Estimated
04:20PM 46.3393 12.0324 58° Northeast  Level Estimated
04:21PM 46.4011 12.1788 58° Northeast  Level Estimated
04:22PM 46.4628 12.3255 59° Northeast  Level Estimated
04:23PM 46.5243 12.4726 59° Northeast  Level Estimated
04:24PM 46.5856 12.6200 59° Northeast  Level Estimated
04:25PM 46.6467 12.7677 59° Northeast  Level Estimated
04:26PM 46.7076 12.9157 59° Northeast  Level Estimated
04:27PM 46.7684 13.0641 59° Northeast  Level Estimated
04:28PM 46.8289 13.2128 59° Northeast  Level Estimated
04:29PM 46.8892 13.3618 59° Northeast  Level Estimated
04:30PM 46.9494 13.5112 59° Northeast  Level Estimated
04:31PM 47.0093 13.6609 60° Northeast  Level Estimated
04:32PM 47.0691 13.8110 60° Northeast  Level Estimated
04:33PM 47.1287 13.9614 60° Northeast  Level Estimated
04:34PM 47.1880 14.1121 60° Northeast  Level Estimated
04:35PM 47.2472 14.2632 60° Northeast  Level Estimated
04:36PM 47.3061 14.4146 60° Northeast  Level Estimated
04:37PM 47.3649 14.5663 60° Northeast  Level Estimated
04:38PM 47.4235 14.7184 60° Northeast  Level Estimated
04:39PM 47.4818 14.8708 60° Northeast  Level Estimated
04:40PM 47.5400 15.0236 61° Northeast  Level Estimated
04:41PM 47.5980 15.1767 61° Northeast  Level Estimated
04:42PM 47.6557 15.3301 61° Northeast  Level Estimated
04:43PM 47.7133 15.4838 61° Northeast  Level Estimated
04:44PM 47.7706 15.6380 61° Northeast  Level Estimated
04:45PM 47.8278 15.7924 61° Northeast  Level Estimated
04:46PM 47.8847 15.9472 61° Northeast  Level Estimated
04:47PM 47.9414 16.1023 61° Northeast  Level Estimated
04:48PM 47.9979 16.2578 61° Northeast  Level Estimated
04:49PM 48.0542 16.4136 62° Northeast  Level Estimated
04:50PM 48.1103 16.5697 62° Northeast  Level Estimated
04:51PM 48.1103 16.5697 146° Southeast  Level Estimated
04:52PM 48.1103 16.5697 146° Southeast  Level Estimated
04:53PM 48.1103 16.5697 146° Southeast  Level Estimated
04:54PM 48.1103 16.5697 146° Southeast  Level Estimated
04:55PM 48.1103 16.5697 146° Southeast  Level Estimated
04:56PM 48.1103 16.5697 146° Southeast  Level Estimated
04:57PM 48.1103 16.5697 146° Southeast  Level Estimated
04:58PM 48.1103 16.5697 146° Southeast  Level Estimated
04:59PM 48.1103 16.5697 146° Southeast  Level Estimated
05:00PM 48.1103 16.5697 146° Southeast  Level Estimated